TFM - Tactical Decision Aid
ID: Runway Winds: CIG/VIS Threshold:

KEWR - Newark Intl, NJ, US

Updated at: 1813 UTC 26 Oct 2021
Latest TAF at: 1729 UTC 26 Oct 2021

TAF Board

Time1756Z 26/19Z 26/20Z 26/21Z 26/22Z 26/23Z 27/00Z 27/01Z 27/02Z 27/03Z 27/04Z 27/05Z 27/06Z 27/07Z>>
Type OBS PRVL PRVL PRVL PRVL PRVL PRVL PRVL PRVL PRVL PRVL PRVL PRVL PRVL
VIS 9 5 5 5 5 3 3 3 3 5 5 5 5 5
CIG 16 9 9 9 9 7 7 7 7 9 9 9 9 9
Cover OVC BKN BKN BKN BKN OVC OVC OVC OVC OVC OVC OVC OVC OVC
FltCat MVFR IFR IFR IFR IFR IFR IFR IFR IFR IFR IFR IFR IFR IFR
WX -RA -SHRA BR -SHRA BR -SHRA BR -SHRA BR RA BR RA BR RA BR RA BR -RA BR -RA BR -RA BR -RA BR -RA BR
WDir 220 270 270 270 270 360 360 360 360 340 340 340 340 340
WSpd 10 10 10 10 10 12 12 12 12 19 19 19 19 19
WGst -- 16 16 16 16 -- -- -- -- 28 28 28 28 28

TDA Impact Legend

  None Marginal Slight Moderate High
Visibility (sm) >5 3≤X≤5 1≤X<3 0.5≤X<1 <0.5
Ceiling (100 ft) >30 10≤X≤30 4≤X<10 2≤X<4 <2
Wind Speed (kt) <15 15≤X<25 25≤X<30 ≥30
Wind Gust (kt) <15 15≤X<25 25≤X<35 ≥35
Weather No Wx Reported VCTS -TS,-FZRA TS,FZRA +TS,+FZRA
TAF
KEWR 261729Z 2618/2724 22012G18KT 6SM -SHRA BR SCT007 BKN015
  TEMPO 2618/2619 5SM -RA BR
  FM261900 27010G16KT 5SM -SHRA BR BKN009
  FM262300 36012KT 3SM RA BR BKN007 OVC012
  FM270300 34019G28KT 5SM -RA BR OVC009
  FM270800 35019G37KT P6SM VCSH SCT015 BKN025
  FM271700 35018G28KT P6SM VCSH BKN025


METAR
KEWR 261756Z 22010KT 9SM -RA FEW008 BKN016 OVC030 16/13 A2935 RMK AO2 P0000 T01610128
KEWR 261751Z 21011G18KT 7SM -RA SCT008 OVC011 16/12 A2935 RMK AO2 RAB49 SLP939 P0000 60038 T01610122 10178 20144 53001
KEWR 261651Z 21014KT 10SM SCT008 BKN011 OVC080 16/13 A2934 RMK AO2 SLP935 CIG 010V013 T01610128
KEWR 261551Z 22014G18KT 10SM BKN007 BKN011 OVC080 16/13 A2933 RMK AO2 SLP933 T01560128
KEWR 261451Z 22010KT 10SM BKN006 OVC090 15/13 A2935 RMK AO2 RAE40 SLP938 SCT V BKN P0002 60038 T01500133 56018

Radar Display
Forecast Discussion